sensor_id;sensor_type;location;lat;lon;timestamp;pressure;altitude;pressure_sealevel;temperature
15062;BMP180;7630;50.306;8.566;2022-12-18T00:02:34;98929.00;;;-2.60
15062;BMP180;7630;50.306;8.566;2022-12-18T00:06:36;98924.00;;;-2.30
15062;BMP180;7630;50.306;8.566;2022-12-18T00:10:37;98927.00;;;-2.40
15062;BMP180;7630;50.306;8.566;2022-12-18T00:14:38;98926.00;;;-2.90
15062;BMP180;7630;50.306;8.566;2022-12-18T00:18:42;98917.00;;;-3.40
15062;BMP180;7630;50.306;8.566;2022-12-18T00:22:43;98926.00;;;-2.50
15062;BMP180;7630;50.306;8.566;2022-12-18T00:26:44;98917.00;;;-2.70
15062;BMP180;7630;50.306;8.566;2022-12-18T00:30:46;98916.00;;;-2.00
15062;BMP180;7630;50.306;8.566;2022-12-18T00:34:47;98929.00;;;-2.40
15062;BMP180;7630;50.306;8.566;2022-12-18T00:38:48;98919.00;;;-2.60
15062;BMP180;7630;50.306;8.566;2022-12-18T00:42:49;98917.00;;;-2.60
15062;BMP180;7630;50.306;8.566;2022-12-18T00:46:56;98933.00;;;-2.20
15062;BMP180;7630;50.306;8.566;2022-12-18T00:50:57;98928.00;;;-3.20
15062;BMP180;7630;50.306;8.566;2022-12-18T00:54:58;98937.00;;;-2.60
15062;BMP180;7630;50.306;8.566;2022-12-18T00:59:01;98943.00;;;-3.00
15062;BMP180;7630;50.306;8.566;2022-12-18T01:03:03;98930.00;;;-2.90
15062;BMP180;7630;50.306;8.566;2022-12-18T01:07:04;98929.00;;;-2.60
15062;BMP180;7630;50.306;8.566;2022-12-18T01:11:15;98928.00;;;-2.40
15062;BMP180;7630;50.306;8.566;2022-12-18T01:15:14;98941.00;;;-2.20
15062;BMP180;7630;50.306;8.566;2022-12-18T01:19:15;98945.00;;;-2.40
15062;BMP180;7630;50.306;8.566;2022-12-18T01:23:16;98955.00;;;-2.70
15062;BMP180;7630;50.306;8.566;2022-12-18T01:27:18;98969.00;;;-2.50
15062;BMP180;7630;50.306;8.566;2022-12-18T01:31:22;98967.00;;;-2.50
15062;BMP180;7630;50.306;8.566;2022-12-18T01:35:23;98971.00;;;-2.50
15062;BMP180;7630;50.306;8.566;2022-12-18T01:39:24;98971.00;;;-2.50
15062;BMP180;7630;50.306;8.566;2022-12-18T01:43:45;98966.00;;;-2.30
15062;BMP180;7630;50.306;8.566;2022-12-18T01:51:55;98948.00;;;-2.50
15062;BMP180;7630;50.306;8.566;2022-12-18T01:55:56;98952.00;;;-3.20
15062;BMP180;7630;50.306;8.566;2022-12-18T02:00:05;98954.00;;;-3.10
15062;BMP180;7630;50.306;8.566;2022-12-18T02:04:24;98951.00;;;-3.40
15062;BMP180;7630;50.306;8.566;2022-12-18T02:12:42;98946.00;;;-3.30
15062;BMP180;7630;50.306;8.566;2022-12-18T02:16:52;98938.00;;;-3.30
15062;BMP180;7630;50.306;8.566;2022-12-18T02:20:47;98942.00;;;-2.70
15062;BMP180;7630;50.306;8.566;2022-12-18T02:25:06;98940.00;;;-2.60
15062;BMP180;7630;50.306;8.566;2022-12-18T02:29:10;98929.00;;;-3.90
15062;BMP180;7630;50.306;8.566;2022-12-18T02:33:13;98933.00;;;-4.00
15062;BMP180;7630;50.306;8.566;2022-12-18T02:37:16;98936.00;;;-3.80
15062;BMP180;7630;50.306;8.566;2022-12-18T02:41:19;98939.00;;;-3.60
15062;BMP180;7630;50.306;8.566;2022-12-18T02:45:20;98941.00;;;-3.60
15062;BMP180;7630;50.306;8.566;2022-12-18T03:02:23;98939.00;;;-3.50
15062;BMP180;7630;50.306;8.566;2022-12-18T03:06:27;98951.00;;;-3.20
15062;BMP180;7630;50.306;8.566;2022-12-18T03:10:32;98955.00;;;-2.70
15062;BMP180;7630;50.306;8.566;2022-12-18T03:14:34;98947.00;;;-2.70
15062;BMP180;7630;50.306;8.566;2022-12-18T03:18:43;98936.00;;;-2.70
15062;BMP180;7630;50.306;8.566;2022-12-18T03:22:47;98925.00;;;-2.80
15062;BMP180;7630;50.306;8.566;2022-12-18T03:26:56;98943.00;;;-2.70
15062;BMP180;7630;50.306;8.566;2022-12-18T03:30:59;98933.00;;;-3.10
15062;BMP180;7630;50.306;8.566;2022-12-18T03:35:03;98934.00;;;-3.00
15062;BMP180;7630;50.306;8.566;2022-12-18T03:39:05;98934.00;;;-3.60
15062;BMP180;7630;50.306;8.566;2022-12-18T03:43:10;98930.00;;;-3.90
15062;BMP180;7630;50.306;8.566;2022-12-18T03:47:31;98926.00;;;-3.90
15062;BMP180;7630;50.306;8.566;2022-12-18T03:51:50;98934.00;;;-4.30
15062;BMP180;7630;50.306;8.566;2022-12-18T03:55:52;98939.00;;;-4.30
15062;BMP180;7630;50.306;8.566;2022-12-18T04:00:00;98934.00;;;-4.70
15062;BMP180;7630;50.306;8.566;2022-12-18T04:04:02;98943.00;;;-3.90
15062;BMP180;7630;50.306;8.566;2022-12-18T04:08:04;98939.00;;;-3.20
15062;BMP180;7630;50.306;8.566;2022-12-18T04:12:06;98926.00;;;-3.50
15062;BMP180;7630;50.306;8.566;2022-12-18T04:16:07;98922.00;;;-3.30
15062;BMP180;7630;50.306;8.566;2022-12-18T04:20:10;98932.00;;;-3.30
15062;BMP180;7630;50.306;8.566;2022-12-18T04:24:12;98926.00;;;-2.90
15062;BMP180;7630;50.306;8.566;2022-12-18T04:28:15;98918.00;;;-3.30
15062;BMP180;7630;50.306;8.566;2022-12-18T04:32:24;98918.00;;;-4.10
15062;BMP180;7630;50.306;8.566;2022-12-18T04:36:22;98926.00;;;-4.00
15062;BMP180;7630;50.306;8.566;2022-12-18T04:40:25;98927.00;;;-4.00
15062;BMP180;7630;50.306;8.566;2022-12-18T04:44:26;98922.00;;;-4.20
15062;BMP180;7630;50.306;8.566;2022-12-18T04:48:28;98918.00;;;-4.20
15062;BMP180;7630;50.306;8.566;2022-12-18T04:52:32;98913.00;;;-3.40
15062;BMP180;7630;50.306;8.566;2022-12-18T04:56:33;98921.00;;;-3.20
15062;BMP180;7630;50.306;8.566;2022-12-18T05:00:35;98917.00;;;-3.20
15062;BMP180;7630;50.306;8.566;2022-12-18T05:04:36;98911.00;;;-4.00
15062;BMP180;7630;50.306;8.566;2022-12-18T05:08:38;98920.00;;;-3.70
15062;BMP180;7630;50.306;8.566;2022-12-18T05:12:39;98920.00;;;-4.10
15062;BMP180;7630;50.306;8.566;2022-12-18T05:16:42;98924.00;;;-3.80
15062;BMP180;7630;50.306;8.566;2022-12-18T05:20:44;98931.00;;;-4.50
15062;BMP180;7630;50.306;8.566;2022-12-18T05:24:45;98932.00;;;-4.10
15062;BMP180;7630;50.306;8.566;2022-12-18T05:28:46;98928.00;;;-4.20
15062;BMP180;7630;50.306;8.566;2022-12-18T05:32:47;98922.00;;;-4.70
15062;BMP180;7630;50.306;8.566;2022-12-18T05:36:48;98927.00;;;-4.20
15062;BMP180;7630;50.306;8.566;2022-12-18T05:40:50;98924.00;;;-3.70
15062;BMP180;7630;50.306;8.566;2022-12-18T05:44:52;98940.00;;;-3.70
15062;BMP180;7630;50.306;8.566;2022-12-18T05:48:53;98919.00;;;-3.90
15062;BMP180;7630;50.306;8.566;2022-12-18T05:52:54;98933.00;;;-3.80
15062;BMP180;7630;50.306;8.566;2022-12-18T05:56:55;98930.00;;;-3.70
15062;BMP180;7630;50.306;8.566;2022-12-18T06:00:57;98927.00;;;-4.00
15062;BMP180;7630;50.306;8.566;2022-12-18T06:04:58;98930.00;;;-4.30
15062;BMP180;7630;50.306;8.566;2022-12-18T06:08:59;98928.00;;;-4.70
15062;BMP180;7630;50.306;8.566;2022-12-18T06:13:02;98930.00;;;-3.90
15062;BMP180;7630;50.306;8.566;2022-12-18T06:17:03;98936.00;;;-3.40
15062;BMP180;7630;50.306;8.566;2022-12-18T06:21:04;98936.00;;;-2.90
15062;BMP180;7630;50.306;8.566;2022-12-18T06:25:06;98935.00;;;-2.80
15062;BMP180;7630;50.306;8.566;2022-12-18T06:29:08;98924.00;;;-2.80
15062;BMP180;7630;50.306;8.566;2022-12-18T06:33:09;98943.00;;;-2.80
15062;BMP180;7630;50.306;8.566;2022-12-18T06:37:10;98941.00;;;-2.80
15062;BMP180;7630;50.306;8.566;2022-12-18T06:41:14;98941.00;;;-2.80
15062;BMP180;7630;50.306;8.566;2022-12-18T06:45:15;98943.00;;;-2.90
15062;BMP180;7630;50.306;8.566;2022-12-18T06:49:21;98956.00;;;-2.90
15062;BMP180;7630;50.306;8.566;2022-12-18T06:53:20;98963.00;;;-3.30
15062;BMP180;7630;50.306;8.566;2022-12-18T06:57:22;98961.00;;;-3.10
15062;BMP180;7630;50.306;8.566;2022-12-18T07:01:23;98975.00;;;-2.90
15062;BMP180;7630;50.306;8.566;2022-12-18T07:05:24;98975.00;;;-3.70
15062;BMP180;7630;50.306;8.566;2022-12-18T07:09:25;98978.00;;;-2.90
15062;BMP180;7630;50.306;8.566;2022-12-18T07:13:27;99001.00;;;-2.80
15062;BMP180;7630;50.306;8.566;2022-12-18T07:17:28;98984.00;;;-2.60
15062;BMP180;7630;50.306;8.566;2022-12-18T07:21:30;98981.00;;;-2.70
15062;BMP180;7630;50.306;8.566;2022-12-18T07:25:35;98762.00;;;-3.40
15062;BMP180;7630;50.306;8.566;2022-12-18T07:29:36;98967.00;;;-3.70
15062;BMP180;7630;50.306;8.566;2022-12-18T07:33:38;98970.00;;;-2.90
15062;BMP180;7630;50.306;8.566;2022-12-18T07:37:40;98970.00;;;-2.00
15062;BMP180;7630;50.306;8.566;2022-12-18T07:41:41;98980.00;;;-2.90
15062;BMP180;7630;50.306;8.566;2022-12-18T07:45:49;98968.00;;;-3.10
15062;BMP180;7630;50.306;8.566;2022-12-18T07:49:51;98973.00;;;-2.30
15062;BMP180;7630;50.306;8.566;2022-12-18T07:53:52;98970.00;;;-3.00
15062;BMP180;7630;50.306;8.566;2022-12-18T07:57:53;98773.00;;;-3.10
15062;BMP180;7630;50.306;8.566;2022-12-18T08:01:56;98983.00;;;-3.40
15062;BMP180;7630;50.306;8.566;2022-12-18T08:06:02;98977.00;;;-2.70
15062;BMP180;7630;50.306;8.566;2022-12-18T08:10:04;98971.00;;;-3.90
15062;BMP180;7630;50.306;8.566;2022-12-18T08:14:07;98976.00;;;-2.40
15062;BMP180;7630;50.306;8.566;2022-12-18T08:18:11;98966.00;;;-2.10
15062;BMP180;7630;50.306;8.566;2022-12-18T08:22:14;98965.00;;;-2.30
15062;BMP180;7630;50.306;8.566;2022-12-18T08:26:15;98970.00;;;-2.00
15062;BMP180;7630;50.306;8.566;2022-12-18T08:30:16;98966.00;;;-1.70
15062;BMP180;7630;50.306;8.566;2022-12-18T08:34:18;98965.00;;;-1.60
15062;BMP180;7630;50.306;8.566;2022-12-18T08:38:19;98958.00;;;-2.40
15062;BMP180;7630;50.306;8.566;2022-12-18T08:42:20;98952.00;;;-2.50
15062;BMP180;7630;50.306;8.566;2022-12-18T08:46:41;98955.00;;;-2.70
15062;BMP180;7630;50.306;8.566;2022-12-18T08:50:42;98942.00;;;-3.10
15062;BMP180;7630;50.306;8.566;2022-12-18T08:54:43;98930.00;;;-2.80
15062;BMP180;7630;50.306;8.566;2022-12-18T08:58:44;98935.00;;;-1.70
15062;BMP180;7630;50.306;8.566;2022-12-18T09:02:46;98932.00;;;-2.50
15062;BMP180;7630;50.306;8.566;2022-12-18T09:06:47;98940.00;;;-1.60
15062;BMP180;7630;50.306;8.566;2022-12-18T09:10:50;98928.00;;;-2.00
15062;BMP180;7630;50.306;8.566;2022-12-18T09:14:51;98937.00;;;-2.50
15062;BMP180;7630;50.306;8.566;2022-12-18T09:18:52;98945.00;;;-2.20
15062;BMP180;7630;50.306;8.566;2022-12-18T09:22:55;98958.00;;;-2.50
15062;BMP180;7630;50.306;8.566;2022-12-18T09:26:56;98961.00;;;-2.00
15062;BMP180;7630;50.306;8.566;2022-12-18T09:30:58;98958.00;;;-2.70
15062;BMP180;7630;50.306;8.566;2022-12-18T09:34:59;98951.00;;;-2.00
15062;BMP180;7630;50.306;8.566;2022-12-18T09:39:03;98962.00;;;-2.40
15062;BMP180;7630;50.306;8.566;2022-12-18T09:43:07;98953.00;;;-3.20
15062;BMP180;7630;50.306;8.566;2022-12-18T09:51:20;98948.00;;;-2.00
15062;BMP180;7630;50.306;8.566;2022-12-18T09:55:34;98943.00;;;-2.50
15062;BMP180;7630;50.306;8.566;2022-12-18T09:59:38;98942.00;;;-3.70
15062;BMP180;7630;50.306;8.566;2022-12-18T10:03:43;98943.00;;;-4.20
15062;BMP180;7630;50.306;8.566;2022-12-18T10:12:13;98943.00;;;-2.80
15062;BMP180;7630;50.306;8.566;2022-12-18T10:24:33;98941.00;;;-2.10
15062;BMP180;7630;50.306;8.566;2022-12-18T10:28:37;98938.00;;;-2.40
15062;BMP180;7630;50.306;8.566;2022-12-18T10:32:40;98915.00;;;-3.00
15062;BMP180;7630;50.306;8.566;2022-12-18T10:36:42;98902.00;;;-4.40
15062;BMP180;7630;50.306;8.566;2022-12-18T10:45:08;98925.00;;;-3.20
15062;BMP180;7630;50.306;8.566;2022-12-18T10:49:30;98917.00;;;-3.40
15062;BMP180;7630;50.306;8.566;2022-12-18T10:53:34;98918.00;;;-4.00
15062;BMP180;7630;50.306;8.566;2022-12-18T10:57:38;98915.00;;;-4.10
15062;BMP180;7630;50.306;8.566;2022-12-18T11:01:59;98916.00;;;-4.10
15062;BMP180;7630;50.306;8.566;2022-12-18T11:06:12;98932.00;;;-3.90
15062;BMP180;7630;50.306;8.566;2022-12-18T11:10:15;98928.00;;;-2.10
15062;BMP180;7630;50.306;8.566;2022-12-18T11:14:25;98923.00;;;-2.30
15062;BMP180;7630;50.306;8.566;2022-12-18T11:18:29;98912.00;;;-2.00
15062;BMP180;7630;50.306;8.566;2022-12-18T11:22:33;98887.00;;;-4.50
15062;BMP180;7630;50.306;8.566;2022-12-18T11:26:36;98905.00;;;-3.90
15062;BMP180;7630;50.306;8.566;2022-12-18T11:30:37;98913.00;;;-3.70
15062;BMP180;7630;50.306;8.566;2022-12-18T11:34:41;98899.00;;;-4.10
15062;BMP180;7630;50.306;8.566;2022-12-18T11:38:43;98897.00;;;-2.70
15062;BMP180;7630;50.306;8.566;2022-12-18T11:42:51;98884.00;;;-2.50
15062;BMP180;7630;50.306;8.566;2022-12-18T11:46:56;98893.00;;;-3.70
15062;BMP180;7630;50.306;8.566;2022-12-18T11:51:00;98893.00;;;-3.40
15062;BMP180;7630;50.306;8.566;2022-12-18T11:55:15;98886.00;;;-2.80
15062;BMP180;7630;50.306;8.566;2022-12-18T11:59:33;98895.00;;;-3.20
15062;BMP180;7630;50.306;8.566;2022-12-18T12:07:53;98897.00;;;-2.70
15062;BMP180;7630;50.306;8.566;2022-12-18T12:12:02;98896.00;;;-3.50
15062;BMP180;7630;50.306;8.566;2022-12-18T12:16:21;98902.00;;;-3.80
15062;BMP180;7630;50.306;8.566;2022-12-18T12:38:08;98894.00;;;-3.70
15062;BMP180;7630;50.306;8.566;2022-12-18T12:42:41;98862.00;;;-4.70
15062;BMP180;7630;50.306;8.566;2022-12-18T12:47:06;98855.00;;;-3.60
15062;BMP180;7630;50.306;8.566;2022-12-18T12:55:25;98873.00;;;-3.50
15062;BMP180;7630;50.306;8.566;2022-12-18T12:59:37;98886.00;;;-3.60
15062;BMP180;7630;50.306;8.566;2022-12-18T13:08:03;98890.00;;;-3.30
15062;BMP180;7630;50.306;8.566;2022-12-18T13:12:11;98891.00;;;-3.80
15062;BMP180;7630;50.306;8.566;2022-12-18T13:16:32;98885.00;;;-4.00
15062;BMP180;7630;50.306;8.566;2022-12-18T13:20:36;98878.00;;;-3.20
15062;BMP180;7630;50.306;8.566;2022-12-18T13:24:38;98874.00;;;-3.20
15062;BMP180;7630;50.306;8.566;2022-12-18T13:41:34;98864.00;;;-2.50
15062;BMP180;7630;50.306;8.566;2022-12-18T13:45:39;98864.00;;;-3.80
15062;BMP180;7630;50.306;8.566;2022-12-18T13:49:43;98883.00;;;-2.60
15062;BMP180;7630;50.306;8.566;2022-12-18T13:54:04;98850.00;;;-3.10
15062;BMP180;7630;50.306;8.566;2022-12-18T13:58:05;98863.00;;;-3.50
15062;BMP180;7630;50.306;8.566;2022-12-18T14:02:16;98844.00;;;-3.60
15062;BMP180;7630;50.306;8.566;2022-12-18T14:06:18;98838.00;;;-3.40
15062;BMP180;7630;50.306;8.566;2022-12-18T14:10:21;98844.00;;;-3.60
15062;BMP180;7630;50.306;8.566;2022-12-18T14:14:25;98855.00;;;-3.20
15062;BMP180;7630;50.306;8.566;2022-12-18T14:18:55;98859.00;;;-3.20
15062;BMP180;7630;50.306;8.566;2022-12-18T14:22:59;98876.00;;;-2.80
15062;BMP180;7630;50.306;8.566;2022-12-18T14:27:23;98872.00;;;-2.80
15062;BMP180;7630;50.306;8.566;2022-12-18T14:31:27;98866.00;;;-1.70
15062;BMP180;7630;50.306;8.566;2022-12-18T14:35:29;98884.00;;;-2.70
15062;BMP180;7630;50.306;8.566;2022-12-18T14:39:33;98878.00;;;-2.60
15062;BMP180;7630;50.306;8.566;2022-12-18T14:43:36;98864.00;;;-1.40
15062;BMP180;7630;50.306;8.566;2022-12-18T14:47:38;98868.00;;;-1.80
15062;BMP180;7630;50.306;8.566;2022-12-18T14:51:41;98872.00;;;-2.10
15062;BMP180;7630;50.306;8.566;2022-12-18T14:55:47;98876.00;;;-3.30
15062;BMP180;7630;50.306;8.566;2022-12-18T14:59:49;98850.00;;;-3.30
15062;BMP180;7630;50.306;8.566;2022-12-18T15:03:52;98853.00;;;-4.00
15062;BMP180;7630;50.306;8.566;2022-12-18T15:07:55;98857.00;;;-4.20
15062;BMP180;7630;50.306;8.566;2022-12-18T15:12:01;98848.00;;;-3.00
15062;BMP180;7630;50.306;8.566;2022-12-18T15:16:02;98856.00;;;-2.70
15062;BMP180;7630;50.306;8.566;2022-12-18T15:20:08;98850.00;;;-2.50
15062;BMP180;7630;50.306;8.566;2022-12-18T15:24:23;98852.00;;;-3.20
15062;BMP180;7630;50.306;8.566;2022-12-18T15:28:25;98844.00;;;-2.50
15062;BMP180;7630;50.306;8.566;2022-12-18T15:32:25;98850.00;;;-2.40
15062;BMP180;7630;50.306;8.566;2022-12-18T15:36:26;98845.00;;;-2.70
15062;BMP180;7630;50.306;8.566;2022-12-18T15:40:29;98831.00;;;-2.20
15062;BMP180;7630;50.306;8.566;2022-12-18T15:44:31;98834.00;;;-2.90
15062;BMP180;7630;50.306;8.566;2022-12-18T15:48:34;98826.00;;;-3.40
15062;BMP180;7630;50.306;8.566;2022-12-18T15:52:41;98834.00;;;-2.90
15062;BMP180;7630;50.306;8.566;2022-12-18T15:56:43;98826.00;;;-3.10
15062;BMP180;7630;50.306;8.566;2022-12-18T16:01:03;98812.00;;;-3.10
15062;BMP180;7630;50.306;8.566;2022-12-18T16:05:15;98811.00;;;-3.30
15062;BMP180;7630;50.306;8.566;2022-12-18T16:09:18;98817.00;;;-2.00
15062;BMP180;7630;50.306;8.566;2022-12-18T16:13:21;98815.00;;;-1.70
15062;BMP180;7630;50.306;8.566;2022-12-18T16:17:22;98821.00;;;-1.40
15062;BMP180;7630;50.306;8.566;2022-12-18T16:21:24;98813.00;;;-1.90
15062;BMP180;7630;50.306;8.566;2022-12-18T16:25:28;98798.00;;;-1.80
15062;BMP180;7630;50.306;8.566;2022-12-18T16:29:29;98793.00;;;-1.90
15062;BMP180;7630;50.306;8.566;2022-12-18T16:33:30;98775.00;;;-1.90
15062;BMP180;7630;50.306;8.566;2022-12-18T16:37:31;98763.00;;;-2.10
15062;BMP180;7630;50.306;8.566;2022-12-18T16:41:33;98768.00;;;-1.90
15062;BMP180;7630;50.306;8.566;2022-12-18T16:45:34;98769.00;;;-2.80
15062;BMP180;7630;50.306;8.566;2022-12-18T16:49:35;98762.00;;;-2.80
15062;BMP180;7630;50.306;8.566;2022-12-18T16:53:37;98760.00;;;-3.30
15062;BMP180;7630;50.306;8.566;2022-12-18T16:57:38;98762.00;;;-3.80
15062;BMP180;7630;50.306;8.566;2022-12-18T17:01:40;98771.00;;;-3.00
15062;BMP180;7630;50.306;8.566;2022-12-18T17:05:41;98760.00;;;-2.50
15062;BMP180;7630;50.306;8.566;2022-12-18T17:09:44;98748.00;;;-3.20
15062;BMP180;7630;50.306;8.566;2022-12-18T17:13:46;98748.00;;;-3.40
15062;BMP180;7630;50.306;8.566;2022-12-18T17:17:47;98748.00;;;-2.80
15062;BMP180;7630;50.306;8.566;2022-12-18T17:21:49;98747.00;;;-3.30
15062;BMP180;7630;50.306;8.566;2022-12-18T17:25:53;98751.00;;;-3.40
15062;BMP180;7630;50.306;8.566;2022-12-18T17:29:55;98738.00;;;-2.50
15062;BMP180;7630;50.306;8.566;2022-12-18T17:33:56;98743.00;;;-2.70
15062;BMP180;7630;50.306;8.566;2022-12-18T17:37:58;98741.00;;;-3.40
15062;BMP180;7630;50.306;8.566;2022-12-18T17:41:59;98753.00;;;-2.60
15062;BMP180;7630;50.306;8.566;2022-12-18T17:46:04;98748.00;;;-2.10
15062;BMP180;7630;50.306;8.566;2022-12-18T17:50:08;98744.00;;;-3.00
15062;BMP180;7630;50.306;8.566;2022-12-18T17:54:10;98737.00;;;-3.20
15062;BMP180;7630;50.306;8.566;2022-12-18T17:58:11;98746.00;;;-2.80
15062;BMP180;7630;50.306;8.566;2022-12-18T18:02:13;98746.00;;;-3.10
15062;BMP180;7630;50.306;8.566;2022-12-18T18:06:16;98738.00;;;-2.90
15062;BMP180;7630;50.306;8.566;2022-12-18T18:10:18;98732.00;;;-2.80
15062;BMP180;7630;50.306;8.566;2022-12-18T18:14:19;98730.00;;;-3.20
15062;BMP180;7630;50.306;8.566;2022-12-18T18:18:21;98717.00;;;-2.80
15062;BMP180;7630;50.306;8.566;2022-12-18T18:22:23;98723.00;;;-2.40
15062;BMP180;7630;50.306;8.566;2022-12-18T18:26:25;98703.00;;;-3.40
15062;BMP180;7630;50.306;8.566;2022-12-18T18:30:30;98733.00;;;-3.40
15062;BMP180;7630;50.306;8.566;2022-12-18T18:34:32;98726.00;;;-2.70
15062;BMP180;7630;50.306;8.566;2022-12-18T18:38:33;98722.00;;;-2.30
15062;BMP180;7630;50.306;8.566;2022-12-18T18:42:34;98705.00;;;-3.00
15062;BMP180;7630;50.306;8.566;2022-12-18T18:46:36;98717.00;;;-2.80
15062;BMP180;7630;50.306;8.566;2022-12-18T18:50:37;98703.00;;;-2.50
15062;BMP180;7630;50.306;8.566;2022-12-18T18:54:38;98690.00;;;-2.70
15062;BMP180;7630;50.306;8.566;2022-12-18T18:58:42;98689.00;;;-2.60
15062;BMP180;7630;50.306;8.566;2022-12-18T19:02:44;98685.00;;;-2.70
15062;BMP180;7630;50.306;8.566;2022-12-18T19:06:46;98696.00;;;-2.40
15062;BMP180;7630;50.306;8.566;2022-12-18T19:10:54;98679.00;;;-2.60
15062;BMP180;7630;50.306;8.566;2022-12-18T19:14:57;98680.00;;;-2.40
15062;BMP180;7630;50.306;8.566;2022-12-18T19:18:59;98688.00;;;-1.80
15062;BMP180;7630;50.306;8.566;2022-12-18T19:23:02;98674.00;;;-2.50
15062;BMP180;7630;50.306;8.566;2022-12-18T19:27:03;98690.00;;;-1.90
15062;BMP180;7630;50.306;8.566;2022-12-18T19:31:07;98692.00;;;-2.30
15062;BMP180;7630;50.306;8.566;2022-12-18T19:35:09;98690.00;;;-2.00
15062;BMP180;7630;50.306;8.566;2022-12-18T19:39:13;98691.00;;;-3.00
15062;BMP180;7630;50.306;8.566;2022-12-18T19:43:16;98672.00;;;-2.70
15062;BMP180;7630;50.306;8.566;2022-12-18T19:47:17;98682.00;;;-1.60
15062;BMP180;7630;50.306;8.566;2022-12-18T19:51:21;98670.00;;;-2.10
15062;BMP180;7630;50.306;8.566;2022-12-18T19:55:23;98665.00;;;-2.10
15062;BMP180;7630;50.306;8.566;2022-12-18T19:59:24;98654.00;;;-1.80
15062;BMP180;7630;50.306;8.566;2022-12-18T20:03:25;98648.00;;;-2.10
15062;BMP180;7630;50.306;8.566;2022-12-18T20:07:29;98663.00;;;-1.80
15062;BMP180;7630;50.306;8.566;2022-12-18T20:11:32;98671.00;;;-1.60
15062;BMP180;7630;50.306;8.566;2022-12-18T20:15:35;98665.00;;;-1.30
15062;BMP180;7630;50.306;8.566;2022-12-18T20:19:38;98669.00;;;-1.60
15062;BMP180;7630;50.306;8.566;2022-12-18T20:23:40;98665.00;;;-1.50
15062;BMP180;7630;50.306;8.566;2022-12-18T20:27:45;98656.00;;;-2.60
15062;BMP180;7630;50.306;8.566;2022-12-18T20:31:49;98672.00;;;-2.50
15062;BMP180;7630;50.306;8.566;2022-12-18T20:35:51;98660.00;;;-2.50
15062;BMP180;7630;50.306;8.566;2022-12-18T20:39:53;98670.00;;;-2.40
15062;BMP180;7630;50.306;8.566;2022-12-18T20:43:56;98684.00;;;-1.00
15062;BMP180;7630;50.306;8.566;2022-12-18T20:47:57;98678.00;;;-0.30
15062;BMP180;7630;50.306;8.566;2022-12-18T20:52:00;98673.00;;;-1.10
15062;BMP180;7630;50.306;8.566;2022-12-18T20:56:09;98671.00;;;-1.10
15062;BMP180;7630;50.306;8.566;2022-12-18T21:00:12;98673.00;;;-1.60
15062;BMP180;7630;50.306;8.566;2022-12-18T21:04:18;98656.00;;;-0.60
15062;BMP180;7630;50.306;8.566;2022-12-18T21:08:20;98664.00;;;-0.80
15062;BMP180;7630;50.306;8.566;2022-12-18T21:12:21;98671.00;;;-0.40
15062;BMP180;7630;50.306;8.566;2022-12-18T21:16:39;98680.00;;;-0.50
15062;BMP180;7630;50.306;8.566;2022-12-18T21:20:46;98683.00;;;-1.10
15062;BMP180;7630;50.306;8.566;2022-12-18T21:24:48;98673.00;;;-2.10
15062;BMP180;7630;50.306;8.566;2022-12-18T21:28:55;98656.00;;;-2.30
15062;BMP180;7630;50.306;8.566;2022-12-18T21:32:56;98673.00;;;-1.50
15062;BMP180;7630;50.306;8.566;2022-12-18T21:36:59;98697.00;;;-0.90
15062;BMP180;7630;50.306;8.566;2022-12-18T21:41:06;98687.00;;;-1.00
15062;BMP180;7630;50.306;8.566;2022-12-18T21:45:08;98683.00;;;-0.50
15062;BMP180;7630;50.306;8.566;2022-12-18T21:49:12;98676.00;;;-0.10
15062;BMP180;7630;50.306;8.566;2022-12-18T21:53:22;98669.00;;;-2.10
15062;BMP180;7630;50.306;8.566;2022-12-18T21:57:24;98673.00;;;-1.60
15062;BMP180;7630;50.306;8.566;2022-12-18T22:01:25;98665.00;;;-1.60
15062;BMP180;7630;50.306;8.566;2022-12-18T22:05:28;98663.00;;;-1.10
15062;BMP180;7630;50.306;8.566;2022-12-18T22:09:29;98664.00;;;-1.60
15062;BMP180;7630;50.306;8.566;2022-12-18T22:13:31;98656.00;;;-0.50
15062;BMP180;7630;50.306;8.566;2022-12-18T22:17:32;98654.00;;;-0.40
15062;BMP180;7630;50.306;8.566;2022-12-18T22:21:36;98654.00;;;-1.00
15062;BMP180;7630;50.306;8.566;2022-12-18T22:25:37;98655.00;;;-0.90
15062;BMP180;7630;50.306;8.566;2022-12-18T22:29:40;98660.00;;;-1.20
15062;BMP180;7630;50.306;8.566;2022-12-18T22:33:58;98658.00;;;-1.90
15062;BMP180;7630;50.306;8.566;2022-12-18T22:38:02;98657.00;;;-0.90
15062;BMP180;7630;50.306;8.566;2022-12-18T22:42:04;98665.00;;;-0.90
15062;BMP180;7630;50.306;8.566;2022-12-18T22:46:07;98641.00;;;-2.10
15062;BMP180;7630;50.306;8.566;2022-12-18T22:50:12;98637.00;;;-2.20
15062;BMP180;7630;50.306;8.566;2022-12-18T22:54:15;98650.00;;;-0.80
15062;BMP180;7630;50.306;8.566;2022-12-18T22:58:16;98639.00;;;-1.30
15062;BMP180;7630;50.306;8.566;2022-12-18T23:02:19;98652.00;;;-0.40
15062;BMP180;7630;50.306;8.566;2022-12-18T23:06:23;98648.00;;;0.70
15062;BMP180;7630;50.306;8.566;2022-12-18T23:10:25;98646.00;;;-0.50
15062;BMP180;7630;50.306;8.566;2022-12-18T23:14:27;98656.00;;;0.40
15062;BMP180;7630;50.306;8.566;2022-12-18T23:18:28;98651.00;;;0.30
15062;BMP180;7630;50.306;8.566;2022-12-18T23:22:29;98650.00;;;-0.70
15062;BMP180;7630;50.306;8.566;2022-12-18T23:26:31;98645.00;;;-0.90
15062;BMP180;7630;50.306;8.566;2022-12-18T23:30:35;98639.00;;;0.60
15062;BMP180;7630;50.306;8.566;2022-12-18T23:34:37;98633.00;;;-0.90
15062;BMP180;7630;50.306;8.566;2022-12-18T23:38:59;98632.00;;;-0.80
15062;BMP180;7630;50.306;8.566;2022-12-18T23:43:05;98634.00;;;0.40
15062;BMP180;7630;50.306;8.566;2022-12-18T23:47:07;98649.00;;;-0.60
15062;BMP180;7630;50.306;8.566;2022-12-18T23:51:10;98625.00;;;-1.00
15062;BMP180;7630;50.306;8.566;2022-12-18T23:55:11;98610.00;;;-0.50
15062;BMP180;7630;50.306;8.566;2022-12-18T23:59:12;98609.00;;;-1.00
